Smith Reynolds Airport
KINT : now visible

Airfield :











YOU CAN JOIN US ON...

 
LOGIN :

Register | Disclaimer

   EN    FR    IT 

 









Legend :    VFR   Marginal VFR   IFR   Intensive IFR   Very Intensive IFR
Visi :
Ceiling :
>= 8 km
>= 3000ft
5 to 8 km
1000 to 3000 ft
1500m to 5 km
500 to 1000 ft
800 to 1500m
200 to 500 ft
< 800m
< 200 ft
Symbols :   Thunderstorms  Fog  Heavy snow  Heavy precipitations  Wind > 20 kt






- Airport Elevation : 969 ft
- IATA code : INT


KINT - Smith Reynolds

CURRENT METAR :
  • 100354Z AUTO 23006KT 10SM FEW110 21/12 A2991 RMK AO2 SLP118 T02110117

EXPIRED METARs :
  • 100254Z AUTO VRB05KT 10SM CLR 22/11 A2992 RMK AO2 SLP125 60000 T02170106 51014
  • 100154Z AUTO 18007KT 10SM FEW075 SCT090 SCT110 23/10 A2989 RMK AO2 RAE0058 PRESFR SLP112 P0000 T02280100

TAF KINT
Valid from the 10 at 02:00 until the 11 at 00:00 UTC


100150Z 1002/1024 20010KT P6SM VCSH SCT110 OVC250
FM100400 20007KT P6SM BKN090 OVC250 WS020/23045KT
FM101300 22009KT P6SM SCT050 OVC080
PROB30 1018/1021 5SM -SHRA BR BKN050
FM102100 36009KT P6SM BKN025 OVC080
KZTL FIR / North America



MET'MAP, your aeronautical weather chart ! - Copyright ORBIFLY December 2007 - Disclaimer

ORBIFLY MET'MAP TEAM :

Programming & Development : Alexandra Zaïnal
Concept & original design : Baudouin d'Aumeries
Assistance for programming : Marc-Olivier Méhu
Technical & hardware support : Manuel Goepfert

Contact : metmap@orbifly.com




SOURCES & CREDITS :

   NOAA       Earth
Advisory